Time;durP1;ratioP1;P1;durP2;ratioP2;P2;SDS_P1;SDS_P2;PMS_P1;PMS_P2;Temp;Humidity;BMP_temperature;BMP_pressure;BME280_temperature;BME280_humidity;BME280_pressure;Samples;Min_cycle;Max_cycle;Signal;HPM_P1;HPM_P2
2021/06/20 00:06:39;;;;;;;2.22;1.73;;;24.00;99.90;;;;;;20913176;28;20225;-70
2021/06/20 00:16:43;;;;;;;1.13;1.13;;;24.10;99.90;;;;;;20912729;28;20292;-70
2021/06/20 00:26:48;;;;;;;2.03;1.38;;;24.00;99.90;;;;;;20882677;28;20224;-70
2021/06/20 00:36:52;;;;;;;1.23;0.88;;;24.00;99.90;;;;;;20910746;28;20212;-68
2021/06/20 00:46:57;;;;;;;0.50;0.50;;;23.90;99.90;;;;;;20908992;28;20221;-68
2021/06/20 00:57:01;;;;;;;1.75;1.13;;;23.80;99.90;;;;;;20893206;28;20191;-68
2021/06/20 01:07:06;;;;;;;2.15;1.30;;;23.90;99.90;;;;;;20995736;22;20268;-74
2021/06/20 01:17:10;;;;;;;0.90;0.73;;;23.90;99.90;;;;;;20742780;28;20283;-75
2021/06/20 01:27:15;;;;;;;0.63;0.63;;;23.80;99.90;;;;;;20676059;28;20227;-74
2021/06/20 01:37:19;;;;;;;0.63;0.63;;;23.90;99.90;;;;;;20644015;28;20299;-74
2021/06/20 01:47:25;;;;;;;1.33;1.23;;;23.90;99.90;;;;;;20671039;28;20702;-74
2021/06/20 01:57:30;;;;;;;3.50;0.52;;;23.90;99.90;;;;;;20822173;28;20202;-77
2021/06/20 02:07:37;;;;;;;0.93;0.47;;;24.00;99.90;;;;;;20976506;22;20264;-68
2021/06/20 02:17:41;;;;;;;0.68;0.68;;;23.80;99.90;;;;;;20969144;28;20188;-69
2021/06/20 02:27:49;;;;;;;2.08;1.20;;;23.70;99.90;;;;;;20969057;28;20221;-69
2021/06/20 02:37:53;;;;;;;10.30;1.40;;;23.50;99.90;;;;;;20994320;28;20709;-69
2021/06/20 02:47:58;;;;;;;0.50;0.40;;;23.20;99.90;;;;;;20987991;28;20307;-68
2021/06/20 02:58:02;;;;;;;0.75;0.55;;;22.90;99.90;;;;;;20984133;28;20200;-70
2021/06/20 03:08:07;;;;;;;13.73;1.70;;;22.60;99.90;;;;;;20965964;28;20331;-69
2021/06/20 03:18:11;;;;;;;2.60;1.23;;;22.50;99.90;;;;;;20983207;28;20203;-68
2021/06/20 03:28:17;;;;;;;1.90;1.77;;;22.50;99.90;;;;;;20904720;28;20311;-69
2021/06/20 03:38:20;;;;;;;3.40;1.37;;;22.30;99.90;;;;;;20899154;28;20209;-69
2021/06/20 03:48:26;;;;;;;0.90;0.70;;;22.40;99.90;;;;;;20898788;28;20229;-70
2021/06/20 03:58:29;;;;;;;0.53;0.53;;;22.30;99.90;;;;;;20898350;28;20208;-69
2021/06/20 04:08:34;;;;;;;1.27;0.85;;;22.30;99.90;;;;;;20979214;28;20327;-69
2021/06/20 04:18:38;;;;;;;3.23;0.77;;;22.60;99.90;;;;;;20965411;28;20284;-67
2021/06/20 04:28:43;;;;;;;2.42;2.22;;;23.10;99.90;;;;;;20995083;28;20535;-68
2021/06/20 04:38:49;;;;;;;3.08;1.05;;;23.40;99.90;;;;;;20977367;28;20207;-68
2021/06/20 04:48:55;;;;;;;1.58;0.85;;;23.50;99.90;;;;;;20994881;28;20251;-70
2021/06/20 04:58:59;;;;;;;2.50;0.88;;;23.60;99.90;;;;;;20992859;28;20619;-68
2021/06/20 05:09:05;;;;;;;4.57;1.65;;;23.50;99.90;;;;;;20991614;28;20238;-69
2021/06/20 05:19:09;;;;;;;5.00;0.82;;;23.70;99.90;;;;;;20991854;28;20276;-69
2021/06/20 05:29:14;;;;;;;1.25;0.77;;;24.00;99.90;;;;;;20990271;28;20568;-69
2021/06/20 05:39:17;;;;;;;7.97;1.30;;;23.60;99.90;;;;;;20971717;28;20208;-69
2021/06/20 05:49:22;;;;;;;9.80;1.83;;;23.30;99.90;;;;;;20988530;28;20523;-68
2021/06/20 05:59:26;;;;;;;1.17;1.08;;;23.40;99.90;;;;;;20988285;28;20224;-69
2021/06/20 06:09:31;;;;;;;2.67;1.10;;;23.80;99.90;;;;;;20987136;28;20327;-69
2021/06/20 06:19:36;;;;;;;2.92;1.48;;;24.00;99.90;;;;;;20968585;28;20221;-69
2021/06/20 06:29:41;;;;;;;3.40;1.40;;;24.50;99.90;;;;;;20986128;28;20610;-68
2021/06/20 06:39:44;;;;;;;4.82;2.25;;;25.00;99.90;;;;;;20985764;28;20205;-68
2021/06/20 06:49:50;;;;;;;2.83;2.22;;;24.80;99.90;;;;;;20983026;28;20251;-68
2021/06/20 06:59:55;;;;;;;11.43;1.55;;;24.90;99.90;;;;;;20989484;28;20231;-68
2021/06/20 07:10:00;;;;;;;2.83;1.50;;;25.00;99.90;;;;;;20983690;28;20224;-70
2021/06/20 07:20:06;;;;;;;14.38;2.53;;;25.00;99.90;;;;;;20983342;28;20625;-71
2021/06/20 07:30:14;;;;;;;10.30;1.95;;;25.60;99.90;;;;;;20982352;28;20228;-70
2021/06/20 07:40:18;;;;;;;3.60;1.42;;;25.40;99.90;;;;;;20981906;28;20830;-67
2021/06/20 07:50:23;;;;;;;2.75;1.42;;;24.80;99.90;;;;;;20985417;28;20287;-69
2021/06/20 08:00:27;;;;;;;3.75;2.42;;;25.20;99.90;;;;;;21012640;28;20225;-68
2021/06/20 08:10:34;;;;;;;2.78;1.02;;;26.30;99.90;;;;;;20997145;28;20587;-69
2021/06/20 08:20:38;;;;;;;11.52;2.53;;;26.50;99.90;;;;;;20996039;28;20185;-69
2021/06/20 08:30:43;;;;;;;4.47;1.40;;;26.60;99.90;;;;;;20994269;28;20244;-68
2021/06/20 08:40:47;;;;;;;12.90;1.85;;;26.80;99.90;;;;;;20993191;28;20227;-68
2021/06/20 08:50:53;;;;;;;4.88;1.70;;;26.70;99.90;;;;;;20990019;28;20332;-64
2021/06/20 09:00:58;;;;;;;1.95;1.55;;;27.10;99.90;;;;;;20971719;28;20216;-68
2021/06/20 09:11:03;;;;;;;18.70;3.35;;;27.20;99.90;;;;;;20985067;28;20235;-72
2021/06/20 09:21:11;;;;;;;21.98;2.55;;;26.60;99.90;;;;;;20986928;28;20640;-68
2021/06/20 09:31:16;;;;;;;5.28;2.55;;;26.30;99.90;;;;;;20984683;28;20665;-68
2021/06/20 09:41:20;;;;;;;7.82;1.98;;;25.60;99.90;;;;;;20984436;28;20201;-68
2021/06/20 09:51:26;;;;;;;10.25;2.10;;;26.10;99.90;;;;;;20980793;28;20220;-68
2021/06/20 10:01:32;;;;;;;1.58;0.93;;;26.30;99.90;;;;;;20965846;28;20221;-68
2021/06/20 10:11:37;;;;;;;2.63;0.85;;;26.20;99.90;;;;;;20982005;28;20308;-68
2021/06/20 10:21:43;;;;;;;3.00;1.13;;;27.20;99.90;;;;;;20980800;28;20193;-68
2021/06/20 10:31:49;;;;;;;2.75;1.45;;;27.50;99.90;;;;;;20982836;28;20617;-67
2021/06/20 10:42:08;;;;;;;2.72;0.75;;;27.40;99.90;;;;;;20980908;28;20188;-69
2021/06/20 10:52:18;;;;;;;3.03;0.57;;;27.20;99.90;;;;;;20980647;28;20723;-74
2021/06/20 11:02:23;;;;;;;2.25;0.40;;;27.80;99.90;;;;;;20981203;28;20224;-68
2021/06/20 11:12:29;;;;;;;1.27;0.68;;;28.70;99.90;;;;;;20980148;28;20232;-69
2021/06/20 11:22:34;;;;;;;0.70;0.70;;;28.90;99.90;;;;;;20980399;28;20556;-69
2021/06/20 11:32:39;;;;;;;3.70;1.15;;;28.60;99.90;;;;;;20990894;28;20234;-69
2021/06/20 11:42:47;;;;;;;0.73;0.68;;;28.20;99.90;;;;;;20998134;28;20203;-68
2021/06/20 11:52:57;;;;;;;2.22;0.70;;;29.80;99.90;;;;;;20995761;28;20692;-66
2021/06/20 12:03:06;;;;;;;0.75;0.40;;;30.50;99.90;;;;;;20997861;28;20271;-68
2021/06/20 12:13:12;;;;;;;2.28;0.85;;;32.00;99.90;;;;;;20994600;28;20262;-67
2021/06/20 12:23:23;;;;;;;1.90;0.75;;;31.70;99.90;;;;;;20992845;28;20185;-68
2021/06/20 12:33:28;;;;;;;1.55;1.45;;;31.40;99.90;;;;;;20994086;28;20315;-68
2021/06/20 12:43:33;;;;;;;1.30;1.20;;;30.60;99.90;;;;;;20992971;28;20276;-68
2021/06/20 12:53:41;;;;;;;1.75;1.63;;;32.00;99.90;;;;;;21040169;28;20215;-68
2021/06/20 13:03:44;;;;;;;3.53;1.73;;;30.70;99.90;;;;;;21083968;28;20244;-68
2021/06/20 13:13:50;;;;;;;10.80;1.60;;;29.70;99.90;;;;;;21076982;28;20696;-68
2021/06/20 13:23:54;;;;;;;2.67;1.05;;;30.70;99.90;;;;;;21037063;28;20649;-68
2021/06/20 13:33:59;;;;;;;6.57;1.73;;;31.90;99.90;;;;;;20993824;28;20274;-70
2021/06/20 13:44:03;;;;;;;3.63;1.40;;;29.10;99.90;;;;;;20993880;28;20224;-70
2021/06/20 13:54:09;;;;;;;2.55;1.63;;;27.90;99.90;;;;;;20992914;28;20296;-68
2021/06/20 14:04:12;;;;;;;1.55;1.30;;;27.50;99.90;;;;;;20993019;28;20307;-69
2021/06/20 14:14:18;;;;;;;3.38;1.42;;;27.40;99.90;;;;;;20989719;28;20227;-68
2021/06/20 14:24:42;;;;;;;3.50;1.60;;;27.80;99.90;;;;;;20990371;28;20699;-69
2021/06/20 14:34:48;;;;;;;4.82;1.58;;;28.70;99.90;;;;;;20967102;28;20319;-67
2021/06/20 14:44:51;;;;;;;3.55;1.90;;;28.40;99.90;;;;;;20985757;28;20650;-68
2021/06/20 14:54:56;;;;;;;2.00;1.13;;;29.40;99.90;;;;;;20983920;28;20225;-68
2021/06/20 15:05:01;;;;;;;1.42;1.33;;;28.60;99.90;;;;;;20984633;28;20292;-69
2021/06/20 15:15:07;;;;;;;1.27;1.17;;;29.00;99.90;;;;;;20985423;28;20719;-69
2021/06/20 15:25:12;;;;;;;2.67;1.48;;;27.90;99.90;;;;;;20985641;28;20279;-68
2021/06/20 15:35:19;;;;;;;0.73;0.52;;;27.60;99.90;;;;;;20985557;28;20243;-67
2021/06/20 15:45:24;;;;;;;0.95;0.85;;;27.00;99.90;;;;;;20985418;28;20193;-69
2021/06/20 15:55:29;;;;;;;3.33;1.27;;;27.70;99.90;;;;;;20982708;28;20507;-69
2021/06/20 16:05:33;;;;;;;3.03;1.67;;;27.60;99.90;;;;;;20979985;28;20596;-69
2021/06/20 16:15:38;;;;;;;8.93;2.00;;;29.10;99.90;;;;;;20982975;28;20253;-67
2021/06/20 16:25:42;;;;;;;2.50;1.95;;;31.90;99.90;;;;;;20995121;28;20189;-67
2021/06/20 16:35:47;;;;;;;1.45;1.08;;;30.90;99.90;;;;;;20994324;28;20220;-68
2021/06/20 16:45:51;;;;;;;6.32;1.50;;;31.90;99.90;;;;;;20992841;28;20193;-67
2021/06/20 16:55:56;;;;;;;1.67;1.58;;;31.70;99.90;;;;;;20991576;28;20224;-67
2021/06/20 17:06:00;;;;;;;2.97;0.88;;;30.30;99.90;;;;;;20992617;28;20325;-67
2021/06/20 17:16:05;;;;;;;2.45;1.33;;;30.10;99.90;;;;;;20996273;28;20586;-68
2021/06/20 17:26:09;;;;;;;2.63;1.80;;;29.80;99.90;;;;;;20988891;28;20607;-68
2021/06/20 17:36:16;;;;;;;3.75;1.13;;;29.70;99.90;;;;;;20990522;28;20256;-69
2021/06/20 17:46:19;;;;;;;3.83;1.30;;;29.30;99.90;;;;;;21009884;28;20201;-69
2021/06/20 17:56:26;;;;;;;4.95;1.73;;;28.30;99.90;;;;;;20990276;28;20212;-72
2021/06/20 18:06:34;;;;;;;1.42;0.98;;;28.20;99.90;;;;;;20986947;28;20312;-69
2021/06/20 18:16:39;;;;;;;5.90;2.15;;;27.50;99.90;;;;;;20996805;28;20220;-70
2021/06/20 18:26:43;;;;;;;1.15;0.77;;;27.30;99.90;;;;;;21002858;28;20195;-71
2021/06/20 18:36:48;;;;;;;1.38;0.95;;;27.30;99.90;;;;;;20999878;28;20323;-69
2021/06/20 18:46:52;;;;;;;3.20;1.05;;;26.70;99.90;;;;;;20988196;28;20610;-70
2021/06/20 18:56:57;;;;;;;1.55;1.23;;;26.60;99.90;;;;;;20986520;28;20238;-69
2021/06/20 19:07:01;;;;;;;6.93;1.40;;;25.90;99.90;;;;;;20983678;28;20244;-70
2021/06/20 19:17:06;;;;;;;1.58;1.45;;;25.10;99.90;;;;;;20983365;28;20217;-69
2021/06/20 19:27:10;;;;;;;3.30;1.97;;;24.80;99.90;;;;;;20994092;28;20450;-72
2021/06/20 19:37:16;;;;;;;2.85;1.90;;;25.00;99.90;;;;;;21058694;28;20560;-69
2021/06/20 19:47:20;;;;;;;1.27;1.17;;;24.90;99.90;;;;;;21062472;28;20228;-71
2021/06/20 19:57:26;;;;;;;0.90;0.85;;;24.70;99.90;;;;;;21004037;28;20760;-71
2021/06/20 20:07:30;;;;;;;2.80;1.10;;;24.80;99.90;;;;;;20998960;28;20220;-70
2021/06/20 20:17:35;;;;;;;0.70;0.70;;;24.70;99.90;;;;;;20995639;28;20239;-69
2021/06/20 20:27:39;;;;;;;1.08;0.82;;;24.50;99.90;;;;;;20994498;28;20656;-68
2021/06/20 20:37:45;;;;;;;1.55;1.45;;;24.40;99.90;;;;;;20991454;28;20609;-69
2021/06/20 20:47:50;;;;;;;2.35;1.63;;;24.30;99.90;;;;;;20991433;28;20215;-70
2021/06/20 20:57:57;;;;;;;1.75;0.93;;;24.30;99.90;;;;;;20990811;28;20228;-70
2021/06/20 21:08:02;;;;;;;1.70;1.10;;;24.10;99.90;;;;;;20989750;28;20534;-70
2021/06/20 21:18:09;;;;;;;4.55;0.95;;;24.00;99.90;;;;;;20991075;28;20228;-69
2021/06/20 21:28:13;;;;;;;1.80;1.30;;;23.90;99.90;;;;;;20973728;28;20588;-69
2021/06/20 21:38:22;;;;;;;2.20;0.75;;;23.90;99.90;;;;;;21054469;28;20573;-69
2021/06/20 21:48:25;;;;;;;1.30;0.80;;;23.90;99.90;;;;;;21055813;28;20280;-69
2021/06/20 21:58:31;;;;;;;0.82;0.82;;;23.90;99.90;;;;;;20970203;28;20286;-68
2021/06/20 22:08:36;;;;;;;1.25;0.90;;;23.90;99.90;;;;;;20986825;28;20228;-69
2021/06/20 22:18:41;;;;;;;2.58;1.65;;;23.90;99.90;;;;;;20987620;28;20308;-69
2021/06/20 22:28:46;;;;;;;0.40;0.40;;;24.00;99.90;;;;;;20987437;28;20204;-68
2021/06/20 22:38:51;;;;;;;6.93;1.60;;;24.10;99.90;;;;;;20971274;28;20224;-68
2021/06/20 22:48:55;;;;;;;2.13;0.33;;;23.90;99.90;;;;;;21000778;28;20221;-68
2021/06/20 22:59:00;;;;;;;1.10;0.73;;;23.80;99.90;;;;;;20986839;28;20292;-68
2021/06/20 23:09:04;;;;;;;2.40;1.70;;;23.70;99.90;;;;;;20984866;28;20656;-70
2021/06/20 23:19:09;;;;;;;1.37;1.03;;;23.60;99.90;;;;;;20983204;28;20685;-69
2021/06/20 23:29:13;;;;;;;0.32;0.30;;;23.70;99.90;;;;;;20983569;28;20193;-69
2021/06/20 23:39:19;;;;;;;7.53;0.88;;;23.90;99.90;;;;;;20983790;28;20248;-68
2021/06/20 23:49:23;;;;;;;0.98;0.85;;;24.20;99.90;;;;;;20983694;28;20721;-68
2021/06/20 23:59:29;;;;;;;3.73;2.23;;;24.30;99.90;;;;;;20987361;22;20479;-72
